Pagrindinis puslapis
METAR-TAF:

METAR-TAF

Oro uostai :

Bario oro uostas

Baris, Italija

platuma: 41-08N, ilguma: 016-47E, Aukštis: 34 m

Dabartinis oras

Ataskaita buvo paskelbta 28 minutes, ne 18:50 UTC
Vėjas 3 kt iš Pietų/Pietryčių, svyruoja nuo Rytų/Pietryčių ir Pietų
Temperatūra 13°C
Drėgmė 100%
Slėgis 1015 hPa
Matomumas 10 km arba daugiau
nėra debesų žemiau 1500 m ir nėra kamuolinių lietaus debesų

METAR: LIBD 301850Z 15003KT 120V180 CAVOK 13/13 Q1015

Laikas: 21:18 (19:18 UTC)

Prognozė

Ataskaita buvo paskelbta 2 valandos ir 18 minutes, ne 17:00 UTC
Prognozė galioja nuo 30 metu 18 UTC su 31 metu 18 UTC
Vėjas 6 kt nuo kintamojo kryptimis
Matomumas 10 km arba daugiau
Išsisklaidę debesys ne aukštis 3000 ft
Tapsmas
nuo 31 metu 06 UTC su 31 metu 08 UTC
Vėjas 10 kt iš Šiaurės
Tapsmas
nuo 31 metu 16 UTC su 31 metu 18 UTC
Vėjas 5 kt nuo kintamojo kryptimis

TAF: LIBD 301700Z 3018/3118 VRB06KT 9999 SCT030 BECMG 3106/3108 01010KT BECMG 3116/3118 VRB05KT

Orai ataskaitas ir orų prognozės (METAR, TAF).

turimą stotys yra geltonos ir raudonos taškus žemėlapyje.

Perkelti pele per norėdami pamatyti stoties vardą.

Tada spustelėkite, norėdami matyti oro stebėjimo ir prognozės.

Norėdami pakeisti žemėlapį: spustelėkite ant žalios mygtukų su juodo kryžiaus žemyn,; žalią mygtuką su brūkšneliu, jei norite nutolinti; arba žalių rodyklių gretimoms žemėlapius.


METAR-TAF: